Adams Field
KLIT : now visible

Airfield :











YOU CAN JOIN US ON...

 
LOGIN :

Register | Disclaimer

   EN    FR    IT 

 









Legend :    VFR   Marginal VFR   IFR   Intensive IFR   Very Intensive IFR
Visi :
Ceiling :
>= 8 km
>= 3000ft
5 to 8 km
1000 to 3000 ft
1500m to 5 km
500 to 1000 ft
800 to 1500m
200 to 500 ft
< 800m
< 200 ft
Symbols :   Thunderstorms  Fog  Heavy snow  Heavy precipitations  Wind > 20 kt






- Airport Elevation : 262 ft
- IATA code : LIT


KLIT - Adams Field

CURRENT METAR :
  • 041353Z 04004KT 10SM OVC038 04/M04 A3039 RMK AO2 SLP294 T00391044

EXPIRED METARs :
  • 041253Z 04006KT 10SM OVC043 04/M04 A3037 RMK AO2 SLP288 T00391044

TAF KLIT
Valid from the 04 at 13:00 until the 05 at 12:00 UTC


041246Z 0413/0512 06005KT P6SM SCT060 OVC150
FM041400 06005KT P6SM VCSH SCT040 OVC060
TEMPO 0414/0418 -RAPL BKN035
FM050000 VRB05KT P6SM SCT015 OVC030
FM050600 VRB03KT P6SM OVC015
KZME FIR / North America



MET'MAP, your aeronautical weather chart ! - Copyright ORBIFLY December 2007 - Disclaimer

ORBIFLY MET'MAP TEAM :

Programming & Development : Alexandra Zaïnal
Original concept : Baudouin d'Aumeries
Technical & hardware support : Manuel Goepfert
Assistance : Marc-Olivier Méhu




SOURCES & CREDITS :

   NOAA       Earth
Advisory